sensor_id;sensor_type;location;lat;lon;timestamp;P1;durP1;ratioP1;P2;durP2;ratioP2
57241;SDS011;43095;53.302;5.786;2022-11-23T00:00:48;15.20;;;11.07;;
57241;SDS011;43095;53.302;5.786;2022-11-23T00:03:15;17.10;;;12.40;;
57241;SDS011;43095;53.302;5.786;2022-11-23T00:05:43;15.80;;;12.27;;
57241;SDS011;43095;53.302;5.786;2022-11-23T00:08:10;18.02;;;11.48;;
57241;SDS011;43095;53.302;5.786;2022-11-23T00:10:37;18.38;;;11.65;;
57241;SDS011;43095;53.302;5.786;2022-11-23T00:13:04;14.07;;;11.63;;
57241;SDS011;43095;53.302;5.786;2022-11-23T00:15:32;22.95;;;12.27;;
57241;SDS011;43095;53.302;5.786;2022-11-23T00:17:59;17.15;;;12.02;;
57241;SDS011;43095;53.302;5.786;2022-11-23T00:20:26;18.42;;;12.90;;
57241;SDS011;43095;53.302;5.786;2022-11-23T00:22:54;15.45;;;11.00;;
57241;SDS011;43095;53.302;5.786;2022-11-23T00:25:21;14.35;;;11.52;;
57241;SDS011;43095;53.302;5.786;2022-11-23T00:27:48;14.52;;;10.60;;
57241;SDS011;43095;53.302;5.786;2022-11-23T00:30:15;20.17;;;12.40;;
57241;SDS011;43095;53.302;5.786;2022-11-23T00:32:42;19.33;;;12.05;;
57241;SDS011;43095;53.302;5.786;2022-11-23T00:35:10;20.60;;;13.32;;
57241;SDS011;43095;53.302;5.786;2022-11-23T00:37:37;20.35;;;13.45;;
57241;SDS011;43095;53.302;5.786;2022-11-23T00:40:04;21.75;;;12.85;;
57241;SDS011;43095;53.302;5.786;2022-11-23T00:42:32;18.52;;;12.60;;
57241;SDS011;43095;53.302;5.786;2022-11-23T00:45:04;26.77;;;11.50;;
57241;SDS011;43095;53.302;5.786;2022-11-23T00:47:31;15.35;;;11.57;;
57241;SDS011;43095;53.302;5.786;2022-11-23T00:49:59;16.83;;;11.90;;
57241;SDS011;43095;53.302;5.786;2022-11-23T00:52:26;19.88;;;12.65;;
57241;SDS011;43095;53.302;5.786;2022-11-23T00:54:53;15.98;;;12.18;;
57241;SDS011;43095;53.302;5.786;2022-11-23T00:57:20;23.38;;;13.57;;
57241;SDS011;43095;53.302;5.786;2022-11-23T00:59:50;16.02;;;11.80;;
57241;SDS011;43095;53.302;5.786;2022-11-23T01:02:17;23.80;;;13.55;;
57241;SDS011;43095;53.302;5.786;2022-11-23T01:04:45;18.02;;;13.07;;
57241;SDS011;43095;53.302;5.786;2022-11-23T01:07:12;19.58;;;12.40;;
57241;SDS011;43095;53.302;5.786;2022-11-23T01:09:39;19.65;;;13.32;;
57241;SDS011;43095;53.302;5.786;2022-11-23T01:12:06;16.67;;;12.30;;
57241;SDS011;43095;53.302;5.786;2022-11-23T01:14:33;19.45;;;12.80;;
57241;SDS011;43095;53.302;5.786;2022-11-23T01:17:03;18.75;;;13.23;;
57241;SDS011;43095;53.302;5.786;2022-11-23T01:19:33;20.90;;;13.65;;
57241;SDS011;43095;53.302;5.786;2022-11-23T01:22:00;21.85;;;13.13;;
57241;SDS011;43095;53.302;5.786;2022-11-23T01:24:28;17.73;;;13.35;;
57241;SDS011;43095;53.302;5.786;2022-11-23T01:26:55;19.05;;;13.27;;
57241;SDS011;43095;53.302;5.786;2022-11-23T01:29:22;22.58;;;13.90;;
57241;SDS011;43095;53.302;5.786;2022-11-23T01:31:50;20.65;;;13.02;;
57241;SDS011;43095;53.302;5.786;2022-11-23T01:34:17;18.73;;;12.60;;
57241;SDS011;43095;53.302;5.786;2022-11-23T01:36:44;21.65;;;12.57;;
57241;SDS011;43095;53.302;5.786;2022-11-23T01:39:12;17.92;;;12.10;;
57241;SDS011;43095;53.302;5.786;2022-11-23T01:41:40;22.38;;;12.48;;
57241;SDS011;43095;53.302;5.786;2022-11-23T01:46:53;20.92;;;13.70;;
57241;SDS011;43095;53.302;5.786;2022-11-23T01:49:21;24.08;;;13.65;;
57241;SDS011;43095;53.302;5.786;2022-11-23T01:51:50;19.75;;;13.13;;
57241;SDS011;43095;53.302;5.786;2022-11-23T01:54:21;18.90;;;12.52;;
57241;SDS011;43095;53.302;5.786;2022-11-23T01:56:57;18.42;;;13.15;;
57241;SDS011;43095;53.302;5.786;2022-11-23T01:59:27;20.63;;;13.82;;
57241;SDS011;43095;53.302;5.786;2022-11-23T02:01:57;22.13;;;13.90;;
57241;SDS011;43095;53.302;5.786;2022-11-23T02:04:26;23.73;;;12.63;;
57241;SDS011;43095;53.302;5.786;2022-11-23T02:07:01;21.73;;;14.63;;
57241;SDS011;43095;53.302;5.786;2022-11-23T02:09:32;20.55;;;14.32;;
57241;SDS011;43095;53.302;5.786;2022-11-23T02:12:13;22.25;;;14.95;;
57241;SDS011;43095;53.302;5.786;2022-11-23T02:14:42;22.00;;;14.45;;
57241;SDS011;43095;53.302;5.786;2022-11-23T02:17:12;25.58;;;14.85;;
57241;SDS011;43095;53.302;5.786;2022-11-23T02:28:14;27.08;;;14.93;;
57241;SDS011;43095;53.302;5.786;2022-11-23T02:30:57;29.90;;;16.25;;
57241;SDS011;43095;53.302;5.786;2022-11-23T02:33:29;25.10;;;16.27;;
57241;SDS011;43095;53.302;5.786;2022-11-23T02:42:08;39.70;;;18.63;;
57241;SDS011;43095;53.302;5.786;2022-11-23T02:47:30;29.42;;;18.02;;
57241;SDS011;43095;53.302;5.786;2022-11-23T02:49:59;27.13;;;17.73;;
57241;SDS011;43095;53.302;5.786;2022-11-23T02:52:29;32.25;;;18.27;;
57241;SDS011;43095;53.302;5.786;2022-11-23T02:54:56;31.88;;;18.27;;
57241;SDS011;43095;53.302;5.786;2022-11-23T02:57:24;34.40;;;18.70;;
57241;SDS011;43095;53.302;5.786;2022-11-23T02:59:51;27.65;;;18.10;;
57241;SDS011;43095;53.302;5.786;2022-11-23T03:02:18;28.42;;;17.33;;
57241;SDS011;43095;53.302;5.786;2022-11-23T03:04:46;28.60;;;18.80;;
57241;SDS011;43095;53.302;5.786;2022-11-23T03:07:13;28.48;;;18.30;;
57241;SDS011;43095;53.302;5.786;2022-11-23T03:09:44;32.17;;;19.73;;
57241;SDS011;43095;53.302;5.786;2022-11-23T03:12:11;29.02;;;18.73;;
57241;SDS011;43095;53.302;5.786;2022-11-23T03:14:38;29.13;;;19.13;;
57241;SDS011;43095;53.302;5.786;2022-11-23T03:17:06;28.35;;;19.73;;
57241;SDS011;43095;53.302;5.786;2022-11-23T03:19:39;34.30;;;21.23;;
57241;SDS011;43095;53.302;5.786;2022-11-23T03:22:08;32.58;;;20.15;;
57241;SDS011;43095;53.302;5.786;2022-11-23T03:24:37;35.28;;;22.00;;
57241;SDS011;43095;53.302;5.786;2022-11-23T03:27:08;37.58;;;23.23;;
57241;SDS011;43095;53.302;5.786;2022-11-23T03:29:35;35.83;;;23.40;;
57241;SDS011;43095;53.302;5.786;2022-11-23T03:32:09;39.80;;;24.45;;
57241;SDS011;43095;53.302;5.786;2022-11-23T03:34:38;35.83;;;22.55;;
57241;SDS011;43095;53.302;5.786;2022-11-23T03:37:08;39.47;;;24.77;;
57241;SDS011;43095;53.302;5.786;2022-11-23T03:39:35;34.72;;;23.95;;
57241;SDS011;43095;53.302;5.786;2022-11-23T03:42:42;39.22;;;24.88;;
57241;SDS011;43095;53.302;5.786;2022-11-23T03:45:10;42.15;;;23.95;;
57241;SDS011;43095;53.302;5.786;2022-11-23T03:47:38;39.45;;;24.45;;
57241;SDS011;43095;53.302;5.786;2022-11-23T03:50:06;40.15;;;24.35;;
57241;SDS011;43095;53.302;5.786;2022-11-23T03:52:33;40.90;;;25.30;;
57241;SDS011;43095;53.302;5.786;2022-11-23T03:55:00;41.30;;;23.75;;
57241;SDS011;43095;53.302;5.786;2022-11-23T03:57:29;39.80;;;25.05;;
57241;SDS011;43095;53.302;5.786;2022-11-23T03:59:59;37.38;;;24.20;;
57241;SDS011;43095;53.302;5.786;2022-11-23T04:02:26;35.20;;;22.65;;
57241;SDS011;43095;53.302;5.786;2022-11-23T04:05:04;36.42;;;23.30;;
57241;SDS011;43095;53.302;5.786;2022-11-23T04:10:25;41.15;;;24.23;;
57241;SDS011;43095;53.302;5.786;2022-11-23T04:13:05;36.20;;;23.60;;
57241;SDS011;43095;53.302;5.786;2022-11-23T04:15:33;38.05;;;24.92;;
57241;SDS011;43095;53.302;5.786;2022-11-23T04:18:01;35.72;;;24.17;;
57241;SDS011;43095;53.302;5.786;2022-11-23T04:20:30;38.10;;;23.33;;
57241;SDS011;43095;53.302;5.786;2022-11-23T04:22:57;37.88;;;24.30;;
57241;SDS011;43095;53.302;5.786;2022-11-23T04:25:26;37.60;;;22.42;;
57241;SDS011;43095;53.302;5.786;2022-11-23T04:27:54;40.97;;;24.83;;
57241;SDS011;43095;53.302;5.786;2022-11-23T04:30:22;35.00;;;21.90;;
57241;SDS011;43095;53.302;5.786;2022-11-23T04:32:52;39.45;;;24.05;;
57241;SDS011;43095;53.302;5.786;2022-11-23T04:35:20;38.03;;;23.27;;
57241;SDS011;43095;53.302;5.786;2022-11-23T04:37:49;34.88;;;22.15;;
57241;SDS011;43095;53.302;5.786;2022-11-23T04:40:17;41.13;;;23.75;;
57241;SDS011;43095;53.302;5.786;2022-11-23T04:43:01;35.80;;;25.58;;
57241;SDS011;43095;53.302;5.786;2022-11-23T04:45:32;36.90;;;24.10;;
57241;SDS011;43095;53.302;5.786;2022-11-23T04:48:04;34.08;;;24.08;;
57241;SDS011;43095;53.302;5.786;2022-11-23T04:50:33;34.55;;;22.35;;
57241;SDS011;43095;53.302;5.786;2022-11-23T04:53:02;45.95;;;25.10;;
57241;SDS011;43095;53.302;5.786;2022-11-23T04:55:39;37.58;;;23.98;;
57241;SDS011;43095;53.302;5.786;2022-11-23T04:58:07;39.65;;;24.92;;
57241;SDS011;43095;53.302;5.786;2022-11-23T05:00:34;34.35;;;21.85;;
57241;SDS011;43095;53.302;5.786;2022-11-23T05:03:03;36.38;;;24.10;;
57241;SDS011;43095;53.302;5.786;2022-11-23T05:05:35;35.08;;;22.45;;
57241;SDS011;43095;53.302;5.786;2022-11-23T05:08:04;35.65;;;23.55;;
57241;SDS011;43095;53.302;5.786;2022-11-23T05:10:44;40.13;;;24.65;;
57241;SDS011;43095;53.302;5.786;2022-11-23T05:13:11;33.38;;;22.20;;
57241;SDS011;43095;53.302;5.786;2022-11-23T05:15:39;34.13;;;22.08;;
57241;SDS011;43095;53.302;5.786;2022-11-23T05:18:06;36.75;;;22.27;;
57241;SDS011;43095;53.302;5.786;2022-11-23T05:20:35;34.03;;;22.65;;
57241;SDS011;43095;53.302;5.786;2022-11-23T05:23:02;35.97;;;21.67;;
57241;SDS011;43095;53.302;5.786;2022-11-23T05:25:32;35.72;;;21.55;;
57241;SDS011;43095;53.302;5.786;2022-11-23T05:28:02;35.83;;;23.17;;
57241;SDS011;43095;53.302;5.786;2022-11-23T05:30:50;36.25;;;19.95;;
57241;SDS011;43095;53.302;5.786;2022-11-23T05:33:18;39.15;;;22.58;;
57241;SDS011;43095;53.302;5.786;2022-11-23T05:35:45;36.22;;;20.50;;
57241;SDS011;43095;53.302;5.786;2022-11-23T05:38:14;33.08;;;19.88;;
57241;SDS011;43095;53.302;5.786;2022-11-23T05:40:43;40.80;;;22.33;;
57241;SDS011;43095;53.302;5.786;2022-11-23T05:43:13;30.98;;;20.05;;
57241;SDS011;43095;53.302;5.786;2022-11-23T05:45:41;33.58;;;20.80;;
57241;SDS011;43095;53.302;5.786;2022-11-23T05:48:09;36.85;;;21.98;;
57241;SDS011;43095;53.302;5.786;2022-11-23T05:50:46;38.33;;;21.50;;
57241;SDS011;43095;53.302;5.786;2022-11-23T05:53:24;37.88;;;21.50;;
57241;SDS011;43095;53.302;5.786;2022-11-23T05:56:02;39.63;;;22.90;;
57241;SDS011;43095;53.302;5.786;2022-11-23T05:58:34;41.53;;;22.85;;
57241;SDS011;43095;53.302;5.786;2022-11-23T06:01:01;38.05;;;23.27;;
57241;SDS011;43095;53.302;5.786;2022-11-23T06:03:33;39.47;;;23.95;;
57241;SDS011;43095;53.302;5.786;2022-11-23T06:06:01;44.85;;;25.42;;
57241;SDS011;43095;53.302;5.786;2022-11-23T06:08:35;39.63;;;25.45;;
57241;SDS011;43095;53.302;5.786;2022-11-23T06:11:03;45.90;;;27.90;;
57241;SDS011;43095;53.302;5.786;2022-11-23T06:13:32;48.10;;;28.50;;
57241;SDS011;43095;53.302;5.786;2022-11-23T06:15:59;45.67;;;28.20;;
57241;SDS011;43095;53.302;5.786;2022-11-23T06:18:37;52.80;;;29.38;;
57241;SDS011;43095;53.302;5.786;2022-11-23T06:21:04;44.92;;;28.60;;
57241;SDS011;43095;53.302;5.786;2022-11-23T06:23:31;43.10;;;27.85;;
57241;SDS011;43095;53.302;5.786;2022-11-23T06:26:00;46.80;;;29.08;;
57241;SDS011;43095;53.302;5.786;2022-11-23T06:28:30;49.85;;;28.10;;
57241;SDS011;43095;53.302;5.786;2022-11-23T06:31:02;52.25;;;30.63;;
57241;SDS011;43095;53.302;5.786;2022-11-23T06:33:32;44.90;;;29.13;;
57241;SDS011;43095;53.302;5.786;2022-11-23T06:36:01;46.05;;;29.13;;
57241;SDS011;43095;53.302;5.786;2022-11-23T06:38:41;39.50;;;27.05;;
57241;SDS011;43095;53.302;5.786;2022-11-23T06:41:13;47.93;;;30.33;;
57241;SDS011;43095;53.302;5.786;2022-11-23T06:43:40;40.05;;;26.65;;
57241;SDS011;43095;53.302;5.786;2022-11-23T06:46:07;48.83;;;28.58;;
57241;SDS011;43095;53.302;5.786;2022-11-23T06:48:41;52.00;;;27.40;;
57241;SDS011;43095;53.302;5.786;2022-11-23T06:51:12;46.08;;;28.25;;
57241;SDS011;43095;53.302;5.786;2022-11-23T06:53:40;42.88;;;27.70;;
57241;SDS011;43095;53.302;5.786;2022-11-23T06:56:12;35.42;;;26.42;;
57241;SDS011;43095;53.302;5.786;2022-11-23T06:58:39;39.13;;;26.17;;
57241;SDS011;43095;53.302;5.786;2022-11-23T07:01:11;39.95;;;26.02;;
57241;SDS011;43095;53.302;5.786;2022-11-23T07:03:59;42.70;;;26.20;;
57241;SDS011;43095;53.302;5.786;2022-11-23T07:06:38;41.08;;;25.02;;
57241;SDS011;43095;53.302;5.786;2022-11-23T07:09:14;38.63;;;24.48;;
57241;SDS011;43095;53.302;5.786;2022-11-23T07:12:13;37.80;;;23.48;;
57241;SDS011;43095;53.302;5.786;2022-11-23T07:14:43;39.13;;;24.35;;
57241;SDS011;43095;53.302;5.786;2022-11-23T07:17:10;35.45;;;24.30;;
57241;SDS011;43095;53.302;5.786;2022-11-23T07:19:43;38.10;;;24.10;;
57241;SDS011;43095;53.302;5.786;2022-11-23T07:22:10;30.40;;;21.85;;
57241;SDS011;43095;53.302;5.786;2022-11-23T07:24:39;32.53;;;21.10;;
57241;SDS011;43095;53.302;5.786;2022-11-23T07:27:12;31.35;;;20.40;;
57241;SDS011;43095;53.302;5.786;2022-11-23T07:29:39;32.08;;;21.83;;
57241;SDS011;43095;53.302;5.786;2022-11-23T07:32:07;31.90;;;20.58;;
57241;SDS011;43095;53.302;5.786;2022-11-23T07:34:35;28.42;;;19.27;;
57241;SDS011;43095;53.302;5.786;2022-11-23T07:37:03;28.60;;;20.25;;
57241;SDS011;43095;53.302;5.786;2022-11-23T07:39:32;34.45;;;20.98;;
57241;SDS011;43095;53.302;5.786;2022-11-23T07:42:20;27.48;;;18.67;;
57241;SDS011;43095;53.302;5.786;2022-11-23T07:44:59;29.90;;;19.63;;
57241;SDS011;43095;53.302;5.786;2022-11-23T07:47:27;32.78;;;18.80;;
57241;SDS011;43095;53.302;5.786;2022-11-23T07:49:54;28.70;;;19.10;;
57241;SDS011;43095;53.302;5.786;2022-11-23T07:52:21;26.35;;;18.33;;
57241;SDS011;43095;53.302;5.786;2022-11-23T07:54:49;28.00;;;18.38;;
57241;SDS011;43095;53.302;5.786;2022-11-23T07:57:16;27.95;;;19.30;;
57241;SDS011;43095;53.302;5.786;2022-11-23T07:59:43;25.25;;;17.60;;
57241;SDS011;43095;53.302;5.786;2022-11-23T08:02:14;29.98;;;18.83;;
57241;SDS011;43095;53.302;5.786;2022-11-23T08:04:41;25.88;;;17.02;;
57241;SDS011;43095;53.302;5.786;2022-11-23T08:07:09;25.65;;;17.42;;
57241;SDS011;43095;53.302;5.786;2022-11-23T08:09:36;24.52;;;16.20;;
57241;SDS011;43095;53.302;5.786;2022-11-23T08:12:03;22.15;;;15.80;;
57241;SDS011;43095;53.302;5.786;2022-11-23T08:14:31;25.33;;;15.73;;
57241;SDS011;43095;53.302;5.786;2022-11-23T08:16:59;22.67;;;16.05;;
57241;SDS011;43095;53.302;5.786;2022-11-23T08:19:26;30.90;;;16.83;;
57241;SDS011;43095;53.302;5.786;2022-11-23T08:21:53;21.42;;;14.73;;
57241;SDS011;43095;53.302;5.786;2022-11-23T08:24:20;18.02;;;13.27;;
57241;SDS011;43095;53.302;5.786;2022-11-23T08:26:48;24.60;;;14.52;;
57241;SDS011;43095;53.302;5.786;2022-11-23T08:29:15;20.23;;;14.25;;
57241;SDS011;43095;53.302;5.786;2022-11-23T08:31:42;26.10;;;14.13;;
57241;SDS011;43095;53.302;5.786;2022-11-23T08:34:09;30.35;;;14.10;;
57241;SDS011;43095;53.302;5.786;2022-11-23T08:36:37;22.98;;;13.00;;
57241;SDS011;43095;53.302;5.786;2022-11-23T08:39:04;23.50;;;13.32;;
57241;SDS011;43095;53.302;5.786;2022-11-23T08:41:31;19.58;;;13.70;;
57241;SDS011;43095;53.302;5.786;2022-11-23T08:43:59;21.80;;;13.50;;
57241;SDS011;43095;53.302;5.786;2022-11-23T08:46:26;26.23;;;16.10;;
57241;SDS011;43095;53.302;5.786;2022-11-23T08:48:53;22.33;;;14.13;;
57241;SDS011;43095;53.302;5.786;2022-11-23T08:51:21;26.67;;;13.43;;
57241;SDS011;43095;53.302;5.786;2022-11-23T08:53:48;23.27;;;14.57;;
57241;SDS011;43095;53.302;5.786;2022-11-23T08:56:16;25.63;;;14.18;;
57241;SDS011;43095;53.302;5.786;2022-11-23T08:58:44;25.20;;;14.80;;
57241;SDS011;43095;53.302;5.786;2022-11-23T09:01:12;26.67;;;14.90;;
57241;SDS011;43095;53.302;5.786;2022-11-23T09:03:41;27.25;;;14.18;;
57241;SDS011;43095;53.302;5.786;2022-11-23T09:06:09;25.92;;;15.23;;
57241;SDS011;43095;53.302;5.786;2022-11-23T09:08:37;22.08;;;13.55;;
57241;SDS011;43095;53.302;5.786;2022-11-23T09:11:05;23.35;;;14.57;;
57241;SDS011;43095;53.302;5.786;2022-11-23T09:13:35;21.10;;;13.50;;
57241;SDS011;43095;53.302;5.786;2022-11-23T09:16:03;27.23;;;14.18;;
57241;SDS011;43095;53.302;5.786;2022-11-23T09:18:32;23.20;;;13.63;;
57241;SDS011;43095;53.302;5.786;2022-11-23T09:21:02;25.42;;;12.73;;
57241;SDS011;43095;53.302;5.786;2022-11-23T09:23:31;20.58;;;14.20;;
57241;SDS011;43095;53.302;5.786;2022-11-23T09:25:59;23.83;;;14.38;;
57241;SDS011;43095;53.302;5.786;2022-11-23T09:28:27;27.08;;;13.80;;
57241;SDS011;43095;53.302;5.786;2022-11-23T09:30:55;24.83;;;13.40;;
57241;SDS011;43095;53.302;5.786;2022-11-23T09:33:23;22.38;;;14.98;;
57241;SDS011;43095;53.302;5.786;2022-11-23T09:36:01;28.60;;;15.80;;
57241;SDS011;43095;53.302;5.786;2022-11-23T09:38:30;23.02;;;14.32;;
57241;SDS011;43095;53.302;5.786;2022-11-23T09:46:59;22.17;;;12.50;;
57241;SDS011;43095;53.302;5.786;2022-11-23T09:52:38;20.15;;;11.20;;
57241;SDS011;43095;53.302;5.786;2022-11-23T09:55:12;23.23;;;11.00;;
57241;SDS011;43095;53.302;5.786;2022-11-23T09:57:55;19.70;;;10.57;;
57241;SDS011;43095;53.302;5.786;2022-11-23T10:00:29;23.80;;;11.52;;
57241;SDS011;43095;53.302;5.786;2022-11-23T10:03:03;19.88;;;10.23;;
57241;SDS011;43095;53.302;5.786;2022-11-23T10:05:31;19.40;;;9.65;;
57241;SDS011;43095;53.302;5.786;2022-11-23T10:13:50;22.00;;;10.60;;
57241;SDS011;43095;53.302;5.786;2022-11-23T10:22:16;20.63;;;10.00;;
57241;SDS011;43095;53.302;5.786;2022-11-23T10:24:50;24.75;;;9.15;;
57241;SDS011;43095;53.302;5.786;2022-11-23T10:27:19;18.63;;;8.85;;
57241;SDS011;43095;53.302;5.786;2022-11-23T10:29:48;22.70;;;8.57;;
57241;SDS011;43095;53.302;5.786;2022-11-23T10:32:37;15.90;;;7.78;;
57241;SDS011;43095;53.302;5.786;2022-11-23T10:35:12;20.55;;;8.70;;
57241;SDS011;43095;53.302;5.786;2022-11-23T10:37:40;20.02;;;8.30;;
57241;SDS011;43095;53.302;5.786;2022-11-23T10:40:17;22.45;;;8.73;;
57241;SDS011;43095;53.302;5.786;2022-11-23T10:42:53;17.10;;;8.45;;
57241;SDS011;43095;53.302;5.786;2022-11-23T10:45:25;24.17;;;7.82;;
57241;SDS011;43095;53.302;5.786;2022-11-23T10:47:57;22.80;;;7.80;;
57241;SDS011;43095;53.302;5.786;2022-11-23T10:50:33;20.42;;;6.32;;
57241;SDS011;43095;53.302;5.786;2022-11-23T10:53:20;18.75;;;6.18;;
57241;SDS011;43095;53.302;5.786;2022-11-23T10:55:50;15.52;;;5.30;;
57241;SDS011;43095;53.302;5.786;2022-11-23T11:01:20;22.55;;;5.60;;
57241;SDS011;43095;53.302;5.786;2022-11-23T11:03:50;20.92;;;5.80;;
57241;SDS011;43095;53.302;5.786;2022-11-23T11:06:26;19.30;;;4.88;;
57241;SDS011;43095;53.302;5.786;2022-11-23T11:11:33;19.60;;;5.00;;
57241;SDS011;43095;53.302;5.786;2022-11-23T11:14:04;21.02;;;6.00;;
57241;SDS011;43095;53.302;5.786;2022-11-23T11:16:33;16.77;;;4.93;;
57241;SDS011;43095;53.302;5.786;2022-11-23T11:21:55;17.10;;;4.88;;
57241;SDS011;43095;53.302;5.786;2022-11-23T11:26:58;24.05;;;4.68;;
57241;SDS011;43095;53.302;5.786;2022-11-23T11:34:52;19.02;;;4.47;;
57241;SDS011;43095;53.302;5.786;2022-11-23T11:42:34;22.60;;;3.92;;
57241;SDS011;43095;53.302;5.786;2022-11-23T11:45:10;12.85;;;3.55;;
57241;SDS011;43095;53.302;5.786;2022-11-23T11:48:12;15.70;;;4.07;;
57241;SDS011;43095;53.302;5.786;2022-11-23T11:53:20;19.95;;;4.03;;
57241;SDS011;43095;53.302;5.786;2022-11-23T11:58:23;15.45;;;3.33;;
57241;SDS011;43095;53.302;5.786;2022-11-23T12:01:26;13.40;;;4.03;;
57241;SDS011;43095;53.302;5.786;2022-11-23T12:03:56;16.23;;;3.70;;
57241;SDS011;43095;53.302;5.786;2022-11-23T12:06:32;11.40;;;2.92;;
57241;SDS011;43095;53.302;5.786;2022-11-23T12:09:10;18.92;;;4.10;;
57241;SDS011;43095;53.302;5.786;2022-11-23T12:11:41;13.02;;;3.28;;
57241;SDS011;43095;53.302;5.786;2022-11-23T12:14:10;14.95;;;3.72;;
57241;SDS011;43095;53.302;5.786;2022-11-23T12:17:00;16.73;;;2.78;;
57241;SDS011;43095;53.302;5.786;2022-11-23T12:20:45;14.35;;;3.00;;
57241;SDS011;43095;53.302;5.786;2022-11-23T12:25:35;14.85;;;3.75;;
57241;SDS011;43095;53.302;5.786;2022-11-23T12:31:11;19.48;;;4.53;;
57241;SDS011;43095;53.302;5.786;2022-11-23T12:39:09;15.95;;;4.00;;
57241;SDS011;43095;53.302;5.786;2022-11-23T12:48:13;17.45;;;3.38;;
57241;SDS011;43095;53.302;5.786;2022-11-23T12:51:21;13.63;;;2.20;;
57241;SDS011;43095;53.302;5.786;2022-11-23T12:54:05;16.40;;;3.83;;
57241;SDS011;43095;53.302;5.786;2022-11-23T12:57:03;14.98;;;2.85;;
57241;SDS011;43095;53.302;5.786;2022-11-23T12:59:37;10.77;;;2.97;;
57241;SDS011;43095;53.302;5.786;2022-11-23T13:02:08;8.87;;;2.50;;
57241;SDS011;43095;53.302;5.786;2022-11-23T13:04:57;15.95;;;3.17;;
57241;SDS011;43095;53.302;5.786;2022-11-23T13:13:28;9.45;;;2.40;;
57241;SDS011;43095;53.302;5.786;2022-11-23T13:16:43;16.67;;;3.10;;
57241;SDS011;43095;53.302;5.786;2022-11-23T13:19:42;10.02;;;2.83;;
57241;SDS011;43095;53.302;5.786;2022-11-23T13:22:26;16.33;;;3.17;;
57241;SDS011;43095;53.302;5.786;2022-11-23T13:25:42;15.70;;;3.00;;
57241;SDS011;43095;53.302;5.786;2022-11-23T13:33:41;14.98;;;4.07;;
57241;SDS011;43095;53.302;5.786;2022-11-23T13:36:57;15.38;;;2.88;;
57241;SDS011;43095;53.302;5.786;2022-11-23T13:42:17;14.95;;;2.83;;
57241;SDS011;43095;53.302;5.786;2022-11-23T13:44:44;13.27;;;2.90;;
57241;SDS011;43095;53.302;5.786;2022-11-23T13:55:00;18.30;;;3.03;;
57241;SDS011;43095;53.302;5.786;2022-11-23T13:57:36;13.77;;;2.72;;
57241;SDS011;43095;53.302;5.786;2022-11-23T14:43:01;11.05;;;1.70;;
57241;SDS011;43095;53.302;5.786;2022-11-23T14:45:30;15.45;;;2.50;;
57241;SDS011;43095;53.302;5.786;2022-11-23T14:50:53;10.93;;;2.90;;
57241;SDS011;43095;53.302;5.786;2022-11-23T14:53:42;15.25;;;2.67;;
57241;SDS011;43095;53.302;5.786;2022-11-23T14:59:17;12.10;;;1.90;;
57241;SDS011;43095;53.302;5.786;2022-11-23T15:02:01;17.60;;;3.17;;
57241;SDS011;43095;53.302;5.786;2022-11-23T15:04:38;12.70;;;2.13;;
57241;SDS011;43095;53.302;5.786;2022-11-23T15:07:23;9.50;;;2.50;;
57241;SDS011;43095;53.302;5.786;2022-11-23T15:12:46;14.18;;;2.83;;
57241;SDS011;43095;53.302;5.786;2022-11-23T15:15:18;12.25;;;2.72;;
57241;SDS011;43095;53.302;5.786;2022-11-23T15:17:58;15.00;;;2.10;;
57241;SDS011;43095;53.302;5.786;2022-11-23T15:20:45;11.32;;;2.40;;
57241;SDS011;43095;53.302;5.786;2022-11-23T15:23:32;8.90;;;1.85;;
57241;SDS011;43095;53.302;5.786;2022-11-23T15:26:03;8.25;;;1.73;;
57241;SDS011;43095;53.302;5.786;2022-11-23T15:28:33;11.85;;;2.63;;
57241;SDS011;43095;53.302;5.786;2022-11-23T15:31:25;12.40;;;2.80;;
57241;SDS011;43095;53.302;5.786;2022-11-23T15:34:04;10.27;;;2.13;;
57241;SDS011;43095;53.302;5.786;2022-11-23T15:36:40;14.45;;;1.95;;
57241;SDS011;43095;53.302;5.786;2022-11-23T15:39:13;14.05;;;2.45;;
57241;SDS011;43095;53.302;5.786;2022-11-23T15:41:43;12.60;;;3.28;;
57241;SDS011;43095;53.302;5.786;2022-11-23T15:44:23;14.40;;;2.35;;
57241;SDS011;43095;53.302;5.786;2022-11-23T15:46:54;13.43;;;2.28;;
57241;SDS011;43095;53.302;5.786;2022-11-23T15:49:28;10.25;;;2.28;;
57241;SDS011;43095;53.302;5.786;2022-11-23T15:51:59;16.30;;;2.25;;
57241;SDS011;43095;53.302;5.786;2022-11-23T15:54:30;8.90;;;1.70;;
57241;SDS011;43095;53.302;5.786;2022-11-23T15:57:01;10.88;;;1.83;;
57241;SDS011;43095;53.302;5.786;2022-11-23T16:02:20;10.70;;;1.92;;
57241;SDS011;43095;53.302;5.786;2022-11-23T16:07:50;9.27;;;1.45;;
57241;SDS011;43095;53.302;5.786;2022-11-23T16:10:28;8.68;;;2.13;;
57241;SDS011;43095;53.302;5.786;2022-11-23T16:13:03;12.20;;;2.15;;
57241;SDS011;43095;53.302;5.786;2022-11-23T16:18:04;12.73;;;3.00;;
57241;SDS011;43095;53.302;5.786;2022-11-23T16:20:54;9.43;;;2.00;;
57241;SDS011;43095;53.302;5.786;2022-11-23T16:26:13;7.88;;;1.90;;
57241;SDS011;43095;53.302;5.786;2022-11-23T16:31:52;7.50;;;2.28;;
57241;SDS011;43095;53.302;5.786;2022-11-23T16:34:21;11.55;;;2.30;;
57241;SDS011;43095;53.302;5.786;2022-11-23T16:36:49;15.43;;;2.92;;
57241;SDS011;43095;53.302;5.786;2022-11-23T16:39:16;12.25;;;2.70;;
57241;SDS011;43095;53.302;5.786;2022-11-23T16:41:44;11.65;;;2.70;;
57241;SDS011;43095;53.302;5.786;2022-11-23T16:44:11;13.60;;;2.83;;
57241;SDS011;43095;53.302;5.786;2022-11-23T16:46:38;15.35;;;2.88;;
57241;SDS011;43095;53.302;5.786;2022-11-23T16:49:16;10.35;;;3.58;;
57241;SDS011;43095;53.302;5.786;2022-11-23T16:51:50;12.57;;;2.95;;
57241;SDS011;43095;53.302;5.786;2022-11-23T16:54:23;14.05;;;3.60;;
57241;SDS011;43095;53.302;5.786;2022-11-23T16:56:51;11.60;;;3.20;;
57241;SDS011;43095;53.302;5.786;2022-11-23T16:59:19;10.93;;;2.95;;
57241;SDS011;43095;53.302;5.786;2022-11-23T17:01:51;13.27;;;3.00;;
57241;SDS011;43095;53.302;5.786;2022-11-23T17:04:23;11.73;;;3.67;;
57241;SDS011;43095;53.302;5.786;2022-11-23T17:06:51;12.30;;;3.03;;
57241;SDS011;43095;53.302;5.786;2022-11-23T17:09:18;11.50;;;3.25;;
57241;SDS011;43095;53.302;5.786;2022-11-23T17:11:46;9.90;;;3.40;;
57241;SDS011;43095;53.302;5.786;2022-11-23T17:14:15;10.98;;;2.97;;
57241;SDS011;43095;53.302;5.786;2022-11-23T17:16:45;9.63;;;3.35;;
57241;SDS011;43095;53.302;5.786;2022-11-23T17:19:17;8.88;;;3.08;;
57241;SDS011;43095;53.302;5.786;2022-11-23T17:21:46;11.32;;;3.22;;
57241;SDS011;43095;53.302;5.786;2022-11-23T17:24:15;9.55;;;3.70;;
57241;SDS011;43095;53.302;5.786;2022-11-23T17:27:23;11.10;;;4.22;;
57241;SDS011;43095;53.302;5.786;2022-11-23T17:29:54;15.93;;;3.45;;
57241;SDS011;43095;53.302;5.786;2022-11-23T17:32:27;10.75;;;3.38;;
57241;SDS011;43095;53.302;5.786;2022-11-23T17:34:54;14.48;;;3.92;;
57241;SDS011;43095;53.302;5.786;2022-11-23T17:37:22;12.55;;;4.28;;
57241;SDS011;43095;53.302;5.786;2022-11-23T17:39:50;14.93;;;3.83;;
57241;SDS011;43095;53.302;5.786;2022-11-23T17:42:17;14.23;;;4.50;;
57241;SDS011;43095;53.302;5.786;2022-11-23T17:44:45;10.75;;;3.60;;
57241;SDS011;43095;53.302;5.786;2022-11-23T17:49:54;6.82;;;3.00;;
57241;SDS011;43095;53.302;5.786;2022-11-23T17:52:22;10.02;;;3.33;;